sensor_id;sensor_type;location;lat;lon;timestamp;P1;durP1;ratioP1;P2;durP2;ratioP2
9372;SDS011;10838;52.350;9.790;2022-08-20T17:03:23;1119.37;;;996.40;;
9372;SDS011;10838;52.350;9.790;2022-08-20T17:05:53;1055.23;;;951.07;;
9372;SDS011;10838;52.350;9.790;2022-08-20T17:08:23;1132.40;;;998.97;;
9372;SDS011;10838;52.350;9.790;2022-08-20T17:10:54;1031.70;;;937.37;;
9372;SDS011;10838;52.350;9.790;2022-08-20T17:13:25;1079.33;;;969.30;;
9372;SDS011;10838;52.350;9.790;2022-08-20T17:15:54;1089.27;;;976.33;;
9372;SDS011;10838;52.350;9.790;2022-08-20T17:18:24;1087.17;;;972.13;;
9372;SDS011;10838;52.350;9.790;2022-08-20T17:20:58;1100.23;;;980.73;;
9372;SDS011;10838;52.350;9.790;2022-08-20T17:23:25;1103.40;;;991.30;;
9372;SDS011;10838;52.350;9.790;2022-08-20T17:25:56;1074.03;;;971.50;;
9372;SDS011;10838;52.350;9.790;2022-08-20T17:28:25;1052.77;;;952.53;;
9372;SDS011;10838;52.350;9.790;2022-08-20T17:30:52;1056.93;;;952.03;;
9372;SDS011;10838;52.350;9.790;2022-08-20T17:33:26;1128.80;;;996.87;;
9372;SDS011;10838;52.350;9.790;2022-08-20T17:35:56;1168.17;;;999.90;;
9372;SDS011;10838;52.350;9.790;2022-08-20T17:38:32;1121.47;;;995.77;;
9372;SDS011;10838;52.350;9.790;2022-08-20T17:41:02;1059.57;;;955.57;;
9372;SDS011;10838;52.350;9.790;2022-08-20T17:43:34;1070.50;;;968.23;;
9372;SDS011;10838;52.350;9.790;2022-08-20T17:46:02;1117.27;;;996.20;;
9372;SDS011;10838;52.350;9.790;2022-08-20T17:48:34;1086.13;;;975.53;;
9372;SDS011;10838;52.350;9.790;2022-08-20T17:51:07;1219.97;;;999.90;;
9372;SDS011;10838;52.350;9.790;2022-08-20T17:53:39;1155.57;;;999.90;;
9372;SDS011;10838;52.350;9.790;2022-08-20T17:56:12;1140.97;;;999.90;;
9372;SDS011;10838;52.350;9.790;2022-08-20T17:58:44;1116.07;;;996.80;;
9372;SDS011;10838;52.350;9.790;2022-08-20T18:01:14;1227.70;;;999.90;;
9372;SDS011;10838;52.350;9.790;2022-08-20T18:03:45;1148.53;;;999.90;;
9372;SDS011;10838;52.350;9.790;2022-08-20T18:06:15;1259.57;;;999.90;;
9372;SDS011;10838;52.350;9.790;2022-08-20T18:08:47;1152.67;;;997.57;;
9372;SDS011;10838;52.350;9.790;2022-08-20T18:11:24;1215.50;;;999.90;;
9372;SDS011;10838;52.350;9.790;2022-08-20T18:13:58;1292.53;;;999.90;;
9372;SDS011;10838;52.350;9.790;2022-08-20T18:16:37;1116.90;;;998.50;;
9372;SDS011;10838;52.350;9.790;2022-08-20T18:19:12;1162.53;;;994.33;;
9372;SDS011;10838;52.350;9.790;2022-08-20T18:21:46;1144.60;;;999.90;;
9372;SDS011;10838;52.350;9.790;2022-08-20T18:24:26;1134.20;;;997.00;;
9372;SDS011;10838;52.350;9.790;2022-08-20T18:27:01;1200.27;;;999.90;;
9372;SDS011;10838;52.350;9.790;2022-08-20T18:29:34;1173.00;;;998.40;;
9372;SDS011;10838;52.350;9.790;2022-08-20T18:32:04;1228.40;;;999.90;;
9372;SDS011;10838;52.350;9.790;2022-08-20T18:34:38;1138.43;;;999.90;;
9372;SDS011;10838;52.350;9.790;2022-08-20T18:37:07;1227.80;;;999.90;;
9372;SDS011;10838;52.350;9.790;2022-08-20T18:39:47;1095.63;;;980.83;;
9372;SDS011;10838;52.350;9.790;2022-08-20T18:42:21;1111.80;;;989.23;;
9372;SDS011;10838;52.350;9.790;2022-08-20T18:44:51;1250.57;;;999.90;;
9372;SDS011;10838;52.350;9.790;2022-08-20T18:47:20;1109.50;;;984.87;;
9372;SDS011;10838;52.350;9.790;2022-08-20T18:49:58;1254.90;;;999.90;;
9372;SDS011;10838;52.350;9.790;2022-08-20T18:52:31;1203.80;;;999.90;;
9372;SDS011;10838;52.350;9.790;2022-08-20T18:54:59;1129.87;;;999.20;;
9372;SDS011;10838;52.350;9.790;2022-08-20T18:57:28;1246.10;;;999.90;;
9372;SDS011;10838;52.350;9.790;2022-08-20T18:59:59;1139.03;;;999.90;;
9372;SDS011;10838;52.350;9.790;2022-08-20T19:02:32;1205.57;;;999.90;;
9372;SDS011;10838;52.350;9.790;2022-08-20T19:05:03;1214.77;;;999.90;;
9372;SDS011;10838;52.350;9.790;2022-08-20T19:07:40;1108.97;;;992.63;;
9372;SDS011;10838;52.350;9.790;2022-08-20T19:10:17;1169.87;;;993.53;;
9372;SDS011;10838;52.350;9.790;2022-08-20T19:13:05;1211.53;;;999.90;;
9372;SDS011;10838;52.350;9.790;2022-08-20T19:15:52;1066.63;;;961.97;;
9372;SDS011;10838;52.350;9.790;2022-08-20T19:18:25;1174.43;;;995.03;;
9372;SDS011;10838;52.350;9.790;2022-08-20T19:20:59;1170.77;;;997.37;;
9372;SDS011;10838;52.350;9.790;2022-08-20T19:23:35;1143.50;;;984.40;;
9372;SDS011;10838;52.350;9.790;2022-08-20T19:26:04;1102.27;;;988.23;;
9372;SDS011;10838;52.350;9.790;2022-08-20T19:28:38;1086.67;;;970.33;;
9372;SDS011;10838;52.350;9.790;2022-08-20T19:31:08;1225.27;;;999.90;;
9372;SDS011;10838;52.350;9.790;2022-08-20T19:33:37;1097.87;;;984.57;;
9372;SDS011;10838;52.350;9.790;2022-08-20T19:36:11;1066.20;;;954.23;;
9372;SDS011;10838;52.350;9.790;2022-08-20T19:38:41;1112.70;;;987.20;;
9372;SDS011;10838;52.350;9.790;2022-08-20T19:41:09;1061.17;;;954.43;;
9372;SDS011;10838;52.350;9.790;2022-08-20T19:43:41;1147.10;;;995.70;;
9372;SDS011;10838;52.350;9.790;2022-08-20T19:46:09;1060.67;;;949.40;;
9372;SDS011;10838;52.350;9.790;2022-08-20T19:48:42;1194.53;;;999.90;;
9372;SDS011;10838;52.350;9.790;2022-08-20T19:51:22;1214.50;;;999.90;;
9372;SDS011;10838;52.350;9.790;2022-08-20T19:53:54;1067.13;;;955.50;;
9372;SDS011;10838;52.350;9.790;2022-08-20T19:56:22;1077.40;;;964.67;;
9372;SDS011;10838;52.350;9.790;2022-08-20T19:58:57;1133.40;;;985.20;;
9372;SDS011;10838;52.350;9.790;2022-08-20T20:01:26;1078.13;;;961.53;;
9372;SDS011;10838;52.350;9.790;2022-08-20T20:03:53;1052.47;;;942.13;;
9372;SDS011;10838;52.350;9.790;2022-08-20T20:06:24;1237.93;;;999.90;;
9372;SDS011;10838;52.350;9.790;2022-08-20T20:08:53;1121.83;;;981.83;;
9372;SDS011;10838;52.350;9.790;2022-08-20T20:11:24;1241.23;;;999.17;;
9372;SDS011;10838;52.350;9.790;2022-08-20T20:13:58;1262.20;;;999.80;;
9372;SDS011;10838;52.350;9.790;2022-08-20T20:16:26;1173.37;;;999.90;;
9372;SDS011;10838;52.350;9.790;2022-08-20T20:18:55;1175.40;;;990.43;;
9372;SDS011;10838;52.350;9.790;2022-08-20T20:21:24;1243.70;;;999.90;;
9372;SDS011;10838;52.350;9.790;2022-08-20T20:24:01;1154.87;;;999.90;;
9372;SDS011;10838;52.350;9.790;2022-08-20T20:26:29;1155.50;;;999.53;;
9372;SDS011;10838;52.350;9.790;2022-08-20T20:28:59;1065.10;;;952.47;;
9372;SDS011;10838;52.350;9.790;2022-08-20T20:31:34;1094.60;;;976.47;;
9372;SDS011;10838;52.350;9.790;2022-08-20T20:34:06;1129.10;;;994.37;;
9372;SDS011;10838;52.350;9.790;2022-08-20T20:36:38;1171.13;;;997.07;;
9372;SDS011;10838;52.350;9.790;2022-08-20T20:39:08;1016.27;;;915.43;;
9372;SDS011;10838;52.350;9.790;2022-08-20T20:41:49;1186.77;;;999.70;;
9372;SDS011;10838;52.350;9.790;2022-08-20T20:44:18;1126.93;;;998.57;;
9372;SDS011;10838;52.350;9.790;2022-08-20T20:46:46;1160.07;;;996.67;;
9372;SDS011;10838;52.350;9.790;2022-08-20T20:49:17;1120.37;;;993.17;;
9372;SDS011;10838;52.350;9.790;2022-08-20T20:51:54;1109.73;;;987.03;;
9372;SDS011;10838;52.350;9.790;2022-08-20T20:54:25;1067.77;;;956.10;;
9372;SDS011;10838;52.350;9.790;2022-08-20T20:56:58;1063.57;;;948.80;;
9372;SDS011;10838;52.350;9.790;2022-08-20T20:59:27;1066.33;;;956.33;;
9372;SDS011;10838;52.350;9.790;2022-08-20T21:01:56;1034.30;;;924.73;;
9372;SDS011;10838;52.350;9.790;2022-08-20T21:04:23;1140.10;;;994.47;;
9372;SDS011;10838;52.350;9.790;2022-08-20T21:06:50;1113.40;;;991.30;;
9372;SDS011;10838;52.350;9.790;2022-08-20T21:09:19;1052.70;;;942.50;;
9372;SDS011;10838;52.350;9.790;2022-08-20T21:11:47;1199.60;;;998.07;;
9372;SDS011;10838;52.350;9.790;2022-08-20T21:14:14;1127.30;;;993.13;;
9372;SDS011;10838;52.350;9.790;2022-08-20T21:16:42;1148.83;;;993.20;;
9372;SDS011;10838;52.350;9.790;2022-08-20T21:19:09;1057.50;;;946.90;;
9372;SDS011;10838;52.350;9.790;2022-08-20T21:21:37;1145.60;;;976.57;;
9372;SDS011;10838;52.350;9.790;2022-08-20T21:24:04;1049.97;;;934.97;;
9372;SDS011;10838;52.350;9.790;2022-08-20T21:26:33;1099.57;;;975.97;;
9372;SDS011;10838;52.350;9.790;2022-08-20T21:29:00;1092.80;;;973.20;;
9372;SDS011;10838;52.350;9.790;2022-08-20T21:31:29;1172.07;;;999.90;;
9372;SDS011;10838;52.350;9.790;2022-08-20T21:33:58;1166.60;;;981.10;;
9372;SDS011;10838;52.350;9.790;2022-08-20T21:36:25;1128.63;;;986.87;;
9372;SDS011;10838;52.350;9.790;2022-08-20T21:38:52;1146.50;;;997.87;;
9372;SDS011;10838;52.350;9.790;2022-08-20T21:41:18;1052.00;;;935.93;;
9372;SDS011;10838;52.350;9.790;2022-08-20T21:43:46;1078.77;;;962.77;;
9372;SDS011;10838;52.350;9.790;2022-08-20T21:46:13;1182.10;;;999.90;;
9372;SDS011;10838;52.350;9.790;2022-08-20T21:48:39;1061.27;;;945.47;;
9372;SDS011;10838;52.350;9.790;2022-08-20T21:51:06;1077.40;;;960.23;;
9372;SDS011;10838;52.350;9.790;2022-08-20T21:53:33;1003.27;;;906.87;;
9372;SDS011;10838;52.350;9.790;2022-08-20T21:55:59;1067.80;;;958.63;;
9372;SDS011;10838;52.350;9.790;2022-08-20T21:58:26;1030.20;;;929.17;;
9372;SDS011;10838;52.350;9.790;2022-08-20T22:00:55;1034.20;;;930.23;;
9372;SDS011;10838;52.350;9.790;2022-08-20T22:03:25;1042.83;;;938.60;;
9372;SDS011;10838;52.350;9.790;2022-08-20T22:05:53;1004.57;;;908.20;;
9372;SDS011;10838;52.350;9.790;2022-08-20T22:08:20;996.07;;;900.97;;
9372;SDS011;10838;52.350;9.790;2022-08-20T22:10:48;986.27;;;893.37;;
9372;SDS011;10838;52.350;9.790;2022-08-20T22:13:17;1009.83;;;914.47;;
9372;SDS011;10838;52.350;9.790;2022-08-20T22:15:43;975.97;;;884.37;;
9372;SDS011;10838;52.350;9.790;2022-08-20T22:18:11;968.87;;;878.53;;
9372;SDS011;10838;52.350;9.790;2022-08-20T22:20:39;980.10;;;888.83;;
9372;SDS011;10838;52.350;9.790;2022-08-20T22:23:06;1012.27;;;916.87;;
9372;SDS011;10838;52.350;9.790;2022-08-20T22:25:32;995.53;;;902.63;;
9372;SDS011;10838;52.350;9.790;2022-08-20T22:27:59;983.03;;;892.17;;
9372;SDS011;10838;52.350;9.790;2022-08-20T22:30:26;995.77;;;901.20;;
9372;SDS011;10838;52.350;9.790;2022-08-20T22:32:54;979.33;;;890.27;;
9372;SDS011;10838;52.350;9.790;2022-08-20T22:35:26;981.40;;;887.87;;
9372;SDS011;10838;52.350;9.790;2022-08-20T22:37:53;982.67;;;891.43;;
9372;SDS011;10838;52.350;9.790;2022-08-20T22:40:19;996.47;;;903.47;;
9372;SDS011;10838;52.350;9.790;2022-08-20T22:42:46;967.47;;;877.63;;
9372;SDS011;10838;52.350;9.790;2022-08-20T22:45:13;968.00;;;877.80;;
9372;SDS011;10838;52.350;9.790;2022-08-20T22:47:39;952.93;;;865.43;;
9372;SDS011;10838;52.350;9.790;2022-08-20T22:50:07;962.37;;;874.53;;
9372;SDS011;10838;52.350;9.790;2022-08-20T22:52:37;959.77;;;872.57;;
9372;SDS011;10838;52.350;9.790;2022-08-20T22:55:06;918.20;;;835.80;;
9372;SDS011;10838;52.350;9.790;2022-08-20T22:57:33;931.03;;;848.60;;
9372;SDS011;10838;52.350;9.790;2022-08-20T23:00:00;942.60;;;856.43;;
9372;SDS011;10838;52.350;9.790;2022-08-20T23:02:27;933.77;;;850.83;;
9372;SDS011;10838;52.350;9.790;2022-08-20T23:04:53;925.03;;;842.93;;
9372;SDS011;10838;52.350;9.790;2022-08-20T23:07:20;943.67;;;855.93;;
9372;SDS011;10838;52.350;9.790;2022-08-20T23:09:48;941.70;;;854.30;;
9372;SDS011;10838;52.350;9.790;2022-08-20T23:12:15;939.40;;;854.33;;
9372;SDS011;10838;52.350;9.790;2022-08-20T23:14:41;916.70;;;832.87;;
9372;SDS011;10838;52.350;9.790;2022-08-20T23:17:09;938.83;;;852.13;;
9372;SDS011;10838;52.350;9.790;2022-08-20T23:19:42;948.63;;;862.60;;
9372;SDS011;10838;52.350;9.790;2022-08-20T23:22:09;937.53;;;851.67;;
9372;SDS011;10838;52.350;9.790;2022-08-20T23:24:37;900.13;;;820.03;;
9372;SDS011;10838;52.350;9.790;2022-08-20T23:27:05;929.57;;;843.13;;
9372;SDS011;10838;52.350;9.790;2022-08-20T23:29:34;905.03;;;821.47;;
9372;SDS011;10838;52.350;9.790;2022-08-20T23:32:01;920.50;;;836.37;;
9372;SDS011;10838;52.350;9.790;2022-08-20T23:34:28;926.90;;;841.57;;
9372;SDS011;10838;52.350;9.790;2022-08-20T23:36:55;909.20;;;826.30;;
9372;SDS011;10838;52.350;9.790;2022-08-20T23:39:23;948.73;;;862.73;;
9372;SDS011;10838;52.350;9.790;2022-08-20T23:41:50;906.77;;;823.97;;
9372;SDS011;10838;52.350;9.790;2022-08-20T23:44:18;915.50;;;833.93;;
9372;SDS011;10838;52.350;9.790;2022-08-20T23:46:45;903.37;;;820.17;;
9372;SDS011;10838;52.350;9.790;2022-08-20T23:49:12;890.50;;;809.43;;
9372;SDS011;10838;52.350;9.790;2022-08-20T23:51:39;910.30;;;826.47;;
9372;SDS011;10838;52.350;9.790;2022-08-20T23:54:05;881.37;;;802.00;;
9372;SDS011;10838;52.350;9.790;2022-08-20T23:56:32;879.07;;;800.03;;
9372;SDS011;10838;52.350;9.790;2022-08-20T23:58:59;871.07;;;791.13;;
